Seagoville's Hourly Summary for Sunday, April 16, 2017
Hour Temp
(f)
RH
(%)
Solar Rad.
(MJ/m2)
Rainfall
(in)
Wind
(mph)
4/16/2017 12:00 AM 68 78 0 0 6.84
4/16/2017 1:00 AM 67 82 0 0 7.17
4/16/2017 2:00 AM 67 85 0 0 6.44
4/16/2017 3:00 AM 65 86 0 0 4.95
4/16/2017 4:00 AM 65 89 0 0 6.49
4/16/2017 5:00 AM 64 90 0 0 5.64
4/16/2017 6:00 AM 64 93 0.01 0 5.48
4/16/2017 7:00 AM 66 89 0.26 0 6.06
4/16/2017 8:00 AM 68 87 0.56 0 6.64
4/16/2017 9:00 AM 70 81 0.68 0 7.99
4/16/2017 10:00 AM 72 75 0.8 0 7.5
4/16/2017 11:00 AM 75 66 1.68 0 8.28
4/16/2017 12:00 PM 76 62 1.42 0 7.3
4/16/2017 1:00 PM 78 57 1.93 0 6.63
4/16/2017 2:00 PM 77 62 1.22 0 6.5
4/16/2017 3:00 PM 78 60 1.5 0 6.58
4/16/2017 4:00 PM 77 63 0.67 0 6.98
4/16/2017 5:00 PM 78 60 0.59 0 5.26
4/16/2017 6:00 PM 77 66 0.22 0 1.36
4/16/2017 7:00 PM 75 72 0.03 0 0.48
4/16/2017 8:00 PM 73 76 0 0 0.01
4/16/2017 9:00 PM 72 81 0 0 0.67
4/16/2017 10:00 PM 71 84 0 0 0.73
4/16/2017 11:00 PM 70 82 0 0 2.32
Data Summary 71 76 11.57 0.00 5.18